Terminal Aerodrome Forecast
Issued by NWS

Home | Current Version | Previous Version | Text Only | Print | Product List | Glossary On
Versions: 1 2 3 4 5 6 7 8 9 10 11 12 13 14
000
FTAK31 PANC 290359 AAB
TAFAGK
TAF AMD
PAGK 290359Z 2904/2924 15008KT P6SM OVC080
      TEMPO 2904/2908 16010G20KT
     FM290900 16008KT P6SM BKN100=

USA.gov is the U.S. government's official web portal to all federal, state and local government web resources and services.